sensor_id;sensor_type;location;lat;lon;timestamp;pressure;altitude;pressure_sealevel;temperature;humidity
14273;BME280;7220;49.450;11.052;2023-01-29T08:16:52;99346.44;;;-0.29;94.29
14273;BME280;7220;49.450;11.052;2023-01-29T08:20:57;99342.94;;;-0.33;84.11
14273;BME280;7220;49.450;11.052;2023-01-29T08:24:58;99346.41;;;-0.31;79.80
14273;BME280;7220;49.450;11.052;2023-01-29T08:28:58;99350.78;;;-0.33;76.68
14273;BME280;7220;49.450;11.052;2023-01-29T08:32:58;99351.63;;;-0.34;75.85
14273;BME280;7220;49.450;11.052;2023-01-29T08:36:59;99352.44;;;-0.38;75.92
14273;BME280;7220;49.450;11.052;2023-01-29T08:40:59;99347.97;;;-0.52;75.25
14273;BME280;7220;49.450;11.052;2023-01-29T08:44:59;99349.81;;;-0.41;74.70
14273;BME280;7220;49.450;11.052;2023-01-29T08:49:00;99354.19;;;-0.39;74.71
14273;BME280;7220;49.450;11.052;2023-01-29T08:53:02;99362.22;;;-0.19;74.30
14273;BME280;7220;49.450;11.052;2023-01-29T08:57:03;99360.41;;;-0.23;74.47
14273;BME280;7220;49.450;11.052;2023-01-29T09:01:08;99353.47;;;-0.21;73.57
14273;BME280;7220;49.450;11.052;2023-01-29T09:05:08;99354.38;;;-0.16;73.68
14273;BME280;7220;49.450;11.052;2023-01-29T09:09:09;99355.19;;;-0.26;73.94
14273;BME280;7220;49.450;11.052;2023-01-29T09:13:10;99351.75;;;-0.19;73.23
14273;BME280;7220;49.450;11.052;2023-01-29T09:17:10;99344.66;;;-0.32;74.03
14273;BME280;7220;49.450;11.052;2023-01-29T09:21:10;99350.69;;;-0.39;74.04
14273;BME280;7220;49.450;11.052;2023-01-29T09:25:11;99351.59;;;-0.40;74.31
14273;BME280;7220;49.450;11.052;2023-01-29T09:29:12;99354.25;;;-0.31;74.99
14273;BME280;7220;49.450;11.052;2023-01-29T09:33:12;99351.53;;;-0.42;74.53
14273;BME280;7220;49.450;11.052;2023-01-29T09:37:12;99338.41;;;-0.51;74.90
14273;BME280;7220;49.450;11.052;2023-01-29T09:45:23;99324.50;;;-0.50;75.51
14273;BME280;7220;49.450;11.052;2023-01-29T09:49:27;99321.19;;;-0.27;74.72
14273;BME280;7220;49.450;11.052;2023-01-29T09:53:38;99324.75;;;-0.19;73.63
14273;BME280;7220;49.450;11.052;2023-01-29T10:06:20;99308.97;;;-0.33;73.77
14273;BME280;7220;49.450;11.052;2023-01-29T10:19:22;99319.38;;;-0.38;73.58
14273;BME280;7220;49.450;11.052;2023-01-29T10:23:31;99330.81;;;-0.25;73.40
14273;BME280;7220;49.450;11.052;2023-01-29T10:27:35;99317.75;;;-0.23;73.85
14273;BME280;7220;49.450;11.052;2023-01-29T10:31:38;99309.97;;;-0.16;72.91
14273;BME280;7220;49.450;11.052;2023-01-29T10:35:45;99318.41;;;-0.49;72.93
14273;BME280;7220;49.450;11.052;2023-01-29T10:39:49;99338.25;;;-0.67;74.62
14273;BME280;7220;49.450;11.052;2023-01-29T10:57:08;99320.97;;;-0.55;73.32
14273;BME280;7220;49.450;11.052;2023-01-29T11:01:13;99318.41;;;-0.51;73.75
14273;BME280;7220;49.450;11.052;2023-01-29T11:05:19;99297.63;;;-0.32;72.64
14273;BME280;7220;49.450;11.052;2023-01-29T11:13:35;99274.47;;;0.14;71.45
14273;BME280;7220;49.450;11.052;2023-01-29T11:17:37;99276.19;;;0.11;71.33
14273;BME280;7220;49.450;11.052;2023-01-29T11:21:57;99264.03;;;0.21;70.75
14273;BME280;7220;49.450;11.052;2023-01-29T11:25:59;99245.81;;;0.42;70.05
14273;BME280;7220;49.450;11.052;2023-01-29T11:29:59;99234.53;;;0.60;69.66
14273;BME280;7220;49.450;11.052;2023-01-29T11:34:03;99223.25;;;0.75;69.35
14273;BME280;7220;49.450;11.052;2023-01-29T11:42:20;99197.06;;;0.66;68.80
14273;BME280;7220;49.450;11.052;2023-01-29T11:46:21;99208.28;;;0.29;70.33
14273;BME280;7220;49.450;11.052;2023-01-29T11:50:24;99195.31;;;0.60;70.01
14273;BME280;7220;49.450;11.052;2023-01-29T11:54:28;99197.97;;;0.67;70.13
14273;BME280;7220;49.450;11.052;2023-01-29T11:58:32;99192.78;;;0.87;69.15
14273;BME280;7220;49.450;11.052;2023-01-29T12:02:36;99190.09;;;0.70;69.14
14273;BME280;7220;49.450;11.052;2023-01-29T12:06:41;99184.88;;;0.74;68.86
14273;BME280;7220;49.450;11.052;2023-01-29T12:10:43;99179.59;;;0.50;69.91
14273;BME280;7220;49.450;11.052;2023-01-29T12:14:43;99170.94;;;1.42;68.07
14273;BME280;7220;49.450;11.052;2023-01-29T12:18:49;99149.97;;;1.57;67.99
14273;BME280;7220;49.450;11.052;2023-01-29T12:23:05;99147.81;;;2.60;64.75
14273;BME280;7220;49.450;11.052;2023-01-29T12:27:16;99133.34;;;3.23;61.16
14273;BME280;7220;49.450;11.052;2023-01-29T12:31:28;99129.75;;;3.30;60.87
14273;BME280;7220;49.450;11.052;2023-01-29T12:35:37;99127.31;;;3.12;60.68
14273;BME280;7220;49.450;11.052;2023-01-29T12:39:41;99139.91;;;2.68;61.16
14273;BME280;7220;49.450;11.052;2023-01-29T12:43:44;99121.50;;;2.66;61.52
14273;BME280;7220;49.450;11.052;2023-01-29T12:47:50;99114.75;;;2.28;60.89
14273;BME280;7220;49.450;11.052;2023-01-29T12:52:08;99092.44;;;2.93;59.96
14273;BME280;7220;49.450;11.052;2023-01-29T12:56:15;99087.47;;;3.55;55.51
14273;BME280;7220;49.450;11.052;2023-01-29T13:00:44;99082.75;;;3.84;54.92
14273;BME280;7220;49.450;11.052;2023-01-29T13:09:05;99079.88;;;4.04;54.04
14273;BME280;7220;49.450;11.052;2023-01-29T13:13:29;99091.91;;;4.23;53.21
14273;BME280;7220;49.450;11.052;2023-01-29T13:17:46;99087.38;;;3.65;53.88
14273;BME280;7220;49.450;11.052;2023-01-29T13:21:50;99093.19;;;3.12;54.94
14273;BME280;7220;49.450;11.052;2023-01-29T13:25:52;99091.94;;;2.43;56.63
14273;BME280;7220;49.450;11.052;2023-01-29T13:29:53;99093.94;;;1.97;58.04
14273;BME280;7220;49.450;11.052;2023-01-29T13:38:30;99086.28;;;1.24;61.26
14273;BME280;7220;49.450;11.052;2023-01-29T13:46:39;99077.59;;;1.08;61.95
14273;BME280;7220;49.450;11.052;2023-01-29T13:50:41;99077.59;;;1.10;62.21
14273;BME280;7220;49.450;11.052;2023-01-29T13:54:50;99073.22;;;1.14;62.13
14273;BME280;7220;49.450;11.052;2023-01-29T13:58:52;99069.69;;;1.33;62.15
14273;BME280;7220;49.450;11.052;2023-01-29T14:06:54;99075.81;;;1.37;61.90
14273;BME280;7220;49.450;11.052;2023-01-29T14:15:17;99089.78;;;1.22;62.42
14273;BME280;7220;49.450;11.052;2023-01-29T14:19:17;99088.03;;;1.16;62.04
14273;BME280;7220;49.450;11.052;2023-01-29T14:23:23;99063.63;;;0.97;62.57
14273;BME280;7220;49.450;11.052;2023-01-29T14:27:27;99059.25;;;1.05;62.66
14273;BME280;7220;49.450;11.052;2023-01-29T14:35:35;99058.38;;;1.19;62.11
14273;BME280;7220;49.450;11.052;2023-01-29T14:39:41;99058.38;;;1.16;62.47
14273;BME280;7220;49.450;11.052;2023-01-29T14:43:43;99054.88;;;1.21;62.68
14273;BME280;7220;49.450;11.052;2023-01-29T14:51:44;99048.81;;;1.08;62.61
14273;BME280;7220;49.450;11.052;2023-01-29T14:55:57;99049.66;;;1.18;62.81
14273;BME280;7220;49.450;11.052;2023-01-29T15:00:01;99034.84;;;1.00;63.15
14273;BME280;7220;49.450;11.052;2023-01-29T15:04:12;99049.69;;;0.83;64.39
14273;BME280;7220;49.450;11.052;2023-01-29T15:08:22;99037.50;;;0.74;64.83
14273;BME280;7220;49.450;11.052;2023-01-29T15:12:34;99045.34;;;0.63;65.56
14273;BME280;7220;49.450;11.052;2023-01-29T15:16:58;99034.88;;;0.57;65.98
14273;BME280;7220;49.450;11.052;2023-01-29T15:21:08;99036.63;;;0.61;66.01
14273;BME280;7220;49.450;11.052;2023-01-29T15:25:14;99026.16;;;0.61;66.39
14273;BME280;7220;49.450;11.052;2023-01-29T15:29:22;99027.91;;;0.54;66.49
14273;BME280;7220;49.450;11.052;2023-01-29T15:33:25;99013.09;;;0.50;66.55
14273;BME280;7220;49.450;11.052;2023-01-29T15:37:31;99022.66;;;0.34;67.99
14273;BME280;7220;49.450;11.052;2023-01-29T15:41:32;99013.06;;;0.21;68.36
14273;BME280;7220;49.450;11.052;2023-01-29T15:45:32;99006.97;;;0.15;69.11
14273;BME280;7220;49.450;11.052;2023-01-29T15:49:35;99008.69;;;0.04;69.68
14273;BME280;7220;49.450;11.052;2023-01-29T15:53:40;99010.41;;;-0.17;70.90
14273;BME280;7220;49.450;11.052;2023-01-29T15:57:42;99012.09;;;-0.28;71.31
14273;BME280;7220;49.450;11.052;2023-01-29T16:01:44;99019.03;;;-0.36;73.51
14273;BME280;7220;49.450;11.052;2023-01-29T16:05:44;99020.78;;;-0.29;73.16
14273;BME280;7220;49.450;11.052;2023-01-29T16:09:45;99012.09;;;-0.28;73.02
14273;BME280;7220;49.450;11.052;2023-01-29T16:13:48;99013.81;;;-0.33;73.15
14273;BME280;7220;49.450;11.052;2023-01-29T16:17:49;99012.94;;;-0.40;73.81
14273;BME280;7220;49.450;11.052;2023-01-29T16:21:55;99002.44;;;-0.49;74.85
14273;BME280;7220;49.450;11.052;2023-01-29T16:26:01;98991.97;;;-0.61;74.94
14273;BME280;7220;49.450;11.052;2023-01-29T16:30:04;99002.41;;;-0.61;75.06
14273;BME280;7220;49.450;11.052;2023-01-29T16:34:07;99010.25;;;-0.61;75.44
14273;BME280;7220;49.450;11.052;2023-01-29T16:38:25;99003.25;;;-0.61;75.09
14273;BME280;7220;49.450;11.052;2023-01-29T16:42:30;99005.06;;;-0.51;74.28
14273;BME280;7220;49.450;11.052;2023-01-29T16:46:33;98994.56;;;-0.60;75.24
14273;BME280;7220;49.450;11.052;2023-01-29T16:50:35;98991.06;;;-0.65;75.78
14273;BME280;7220;49.450;11.052;2023-01-29T16:54:41;98999.75;;;-0.63;75.72
14273;BME280;7220;49.450;11.052;2023-01-29T16:58:48;98990.09;;;-0.87;76.73
14273;BME280;7220;49.450;11.052;2023-01-29T17:02:51;98992.69;;;-0.90;77.13
14273;BME280;7220;49.450;11.052;2023-01-29T17:06:54;99002.19;;;-0.99;77.92
14273;BME280;7220;49.450;11.052;2023-01-29T17:10:56;98993.47;;;-1.04;78.19
14273;BME280;7220;49.450;11.052;2023-01-29T17:14:59;98990.03;;;-1.04;79.08
14273;BME280;7220;49.450;11.052;2023-01-29T17:19:00;98987.41;;;-1.04;79.41
14273;BME280;7220;49.450;11.052;2023-01-29T17:23:00;98989.13;;;-1.03;79.20
14273;BME280;7220;49.450;11.052;2023-01-29T17:27:00;98987.41;;;-1.04;79.89
14273;BME280;7220;49.450;11.052;2023-01-29T17:31:01;98974.38;;;-1.03;80.00
14273;BME280;7220;49.450;11.052;2023-01-29T17:35:01;98977.00;;;-0.98;80.39
14273;BME280;7220;49.450;11.052;2023-01-29T17:39:12;98971.81;;;-0.92;80.15
14273;BME280;7220;49.450;11.052;2023-01-29T17:43:14;98977.03;;;-0.86;80.10
14273;BME280;7220;49.450;11.052;2023-01-29T17:47:14;98975.31;;;-0.87;80.71
14273;BME280;7220;49.450;11.052;2023-01-29T17:51:16;98978.78;;;-0.83;80.22
14273;BME280;7220;49.450;11.052;2023-01-29T17:55:17;98978.84;;;-0.77;80.58
14273;BME280;7220;49.450;11.052;2023-01-29T17:59:19;98981.47;;;-0.75;80.03
14273;BME280;7220;49.450;11.052;2023-01-29T18:03:20;98986.69;;;-0.75;79.81
14273;BME280;7220;49.450;11.052;2023-01-29T18:07:21;98984.03;;;-0.82;79.77
14273;BME280;7220;49.450;11.052;2023-01-29T18:11:21;98984.03;;;-0.82;79.95
14273;BME280;7220;49.450;11.052;2023-01-29T18:15:22;98984.00;;;-0.88;80.23
14273;BME280;7220;49.450;11.052;2023-01-29T18:19:24;98991.81;;;-0.91;80.97
14273;BME280;7220;49.450;11.052;2023-01-29T18:23:30;98988.31;;;-0.94;81.32
14273;BME280;7220;49.450;11.052;2023-01-29T18:27:30;98997.84;;;-1.04;81.47
14273;BME280;7220;49.450;11.052;2023-01-29T18:31:30;98987.34;;;-1.12;82.10
14273;BME280;7220;49.450;11.052;2023-01-29T18:35:31;98990.81;;;-1.15;82.71
14273;BME280;7220;49.450;11.052;2023-01-29T18:39:31;98993.44;;;-1.15;82.90
14273;BME280;7220;49.450;11.052;2023-01-29T18:43:31;98997.72;;;-1.21;83.34
14273;BME280;7220;49.450;11.052;2023-01-29T18:47:32;98985.50;;;-1.30;83.92
14273;BME280;7220;49.450;11.052;2023-01-29T18:51:32;98991.56;;;-1.33;83.87
14273;BME280;7220;49.450;11.052;2023-01-29T18:55:32;99006.34;;;-1.32;84.67
14273;BME280;7220;49.450;11.052;2023-01-29T18:59:33;98999.28;;;-1.44;85.54
14273;BME280;7220;49.450;11.052;2023-01-29T19:03:34;99003.66;;;-1.46;85.48
14273;BME280;7220;49.450;11.052;2023-01-29T19:07:35;98995.78;;;-1.49;85.63
14273;BME280;7220;49.450;11.052;2023-01-29T19:11:36;99015.78;;;-1.49;85.89
14273;BME280;7220;49.450;11.052;2023-01-29T19:15:40;99009.56;;;-1.65;86.55
14273;BME280;7220;49.450;11.052;2023-01-29T19:19:40;98994.84;;;-1.59;86.80
14273;BME280;7220;49.450;11.052;2023-01-29T19:23:41;99002.72;;;-1.54;86.45
14273;BME280;7220;49.450;11.052;2023-01-29T19:27:42;98986.19;;;-1.56;87.06
14273;BME280;7220;49.450;11.052;2023-01-29T19:31:42;98987.00;;;-1.63;86.82
14273;BME280;7220;49.450;11.052;2023-01-29T19:35:43;98986.97;;;-1.66;87.61
14273;BME280;7220;49.450;11.052;2023-01-29T19:39:44;98998.31;;;-1.61;87.66
14273;BME280;7220;49.450;11.052;2023-01-29T19:43:44;98986.09;;;-1.67;87.99
14273;BME280;7220;49.450;11.052;2023-01-29T19:47:45;98981.69;;;-1.74;88.44
14273;BME280;7220;49.450;11.052;2023-01-29T19:51:46;98977.34;;;-1.75;88.69
14273;BME280;7220;49.450;11.052;2023-01-29T19:55:46;98966.94;;;-1.72;88.22
14273;BME280;7220;49.450;11.052;2023-01-29T19:59:47;98973.81;;;-1.83;89.58
14273;BME280;7220;49.450;11.052;2023-01-29T20:03:48;98959.91;;;-1.82;89.89
14273;BME280;7220;49.450;11.052;2023-01-29T20:07:48;98950.34;;;-1.85;90.35
14273;BME280;7220;49.450;11.052;2023-01-29T20:11:49;98956.41;;;-1.84;90.14
14273;BME280;7220;49.450;11.052;2023-01-29T20:15:50;98950.34;;;-1.85;90.55
14273;BME280;7220;49.450;11.052;2023-01-29T20:19:51;98943.38;;;-1.86;90.08
14273;BME280;7220;49.450;11.052;2023-01-29T20:23:51;98942.50;;;-1.88;90.74
14273;BME280;7220;49.450;11.052;2023-01-29T20:27:51;98929.47;;;-1.89;90.43
14273;BME280;7220;49.450;11.052;2023-01-29T20:31:52;98925.06;;;-1.97;91.80
14273;BME280;7220;49.450;11.052;2023-01-29T20:35:57;98935.44;;;-2.00;91.58
14273;BME280;7220;49.450;11.052;2023-01-29T20:39:57;98938.06;;;-1.98;91.56
14273;BME280;7220;49.450;11.052;2023-01-29T20:43:58;98935.50;;;-1.92;91.63
14273;BME280;7220;49.450;11.052;2023-01-29T20:47:58;98939.84;;;-1.94;92.02
14273;BME280;7220;49.450;11.052;2023-01-29T20:51:58;98931.09;;;-1.99;92.06
14273;BME280;7220;49.450;11.052;2023-01-29T20:55:58;98920.66;;;-2.01;92.75
14273;BME280;7220;49.450;11.052;2023-01-29T20:59:59;98927.63;;;-1.98;92.11
14273;BME280;7220;49.450;11.052;2023-01-29T21:03:59;98922.47;;;-1.97;92.24
14273;BME280;7220;49.450;11.052;2023-01-29T21:08:00;98915.50;;;-1.98;92.35
14273;BME280;7220;49.450;11.052;2023-01-29T21:12:00;98916.34;;;-1.97;92.53
14273;BME280;7220;49.450;11.052;2023-01-29T21:16:01;98924.22;;;-1.94;92.08
14273;BME280;7220;49.450;11.052;2023-01-29T21:20:02;98926.69;;;-2.10;92.89
14273;BME280;7220;49.450;11.052;2023-01-29T21:24:03;98922.38;;;-2.04;92.67
14273;BME280;7220;49.450;11.052;2023-01-29T21:28:04;98915.47;;;-2.02;92.74
14273;BME280;7220;49.450;11.052;2023-01-29T21:32:05;98928.41;;;-2.12;92.65
14273;BME280;7220;49.450;11.052;2023-01-29T21:36:05;98931.84;;;-2.14;93.53
14273;BME280;7220;49.450;11.052;2023-01-29T21:40:08;98924.88;;;-2.17;93.44
14273;BME280;7220;49.450;11.052;2023-01-29T21:44:09;98950.09;;;-2.13;93.63
14273;BME280;7220;49.450;11.052;2023-01-29T21:48:10;98950.09;;;-2.13;93.53
14273;BME280;7220;49.450;11.052;2023-01-29T21:52:11;98945.59;;;-2.29;94.63
14273;BME280;7220;49.450;11.052;2023-01-29T21:56:12;98937.78;;;-2.29;95.27
14273;BME280;7220;49.450;11.052;2023-01-29T22:00:14;98943.88;;;-2.29;95.29
14273;BME280;7220;49.450;11.052;2023-01-29T22:04:14;98928.22;;;-2.32;95.35
14273;BME280;7220;49.450;11.052;2023-01-29T22:08:15;98926.41;;;-2.39;96.24
14273;BME280;7220;49.450;11.052;2023-01-29T22:12:16;98933.34;;;-2.38;96.40
14273;BME280;7220;49.450;11.052;2023-01-29T22:16:16;98922.97;;;-2.35;96.61
14273;BME280;7220;49.450;11.052;2023-01-29T22:20:17;98902.97;;;-2.41;96.87
14273;BME280;7220;49.450;11.052;2023-01-29T22:24:19;98903.03;;;-2.31;96.56
14273;BME280;7220;49.450;11.052;2023-01-29T22:28:19;98885.63;;;-2.39;97.48
14273;BME280;7220;49.450;11.052;2023-01-29T22:32:19;98870.84;;;-2.41;97.34
14273;BME280;7220;49.450;11.052;2023-01-29T22:36:20;98863.94;;;-2.41;98.07
14273;BME280;7220;49.450;11.052;2023-01-29T22:40:20;98845.72;;;-2.38;97.44
14273;BME280;7220;49.450;11.052;2023-01-29T22:44:20;98837.91;;;-2.39;98.00
14273;BME280;7220;49.450;11.052;2023-01-29T22:48:21;98817.94;;;-2.42;98.12
14273;BME280;7220;49.450;11.052;2023-01-29T22:52:22;98799.72;;;-2.39;97.85
14273;BME280;7220;49.450;11.052;2023-01-29T22:56:24;98791.91;;;-2.39;97.10
14273;BME280;7220;49.450;11.052;2023-01-29T23:00:25;98768.47;;;-2.40;96.73
14273;BME280;7220;49.450;11.052;2023-01-29T23:04:25;98759.75;;;-2.45;97.00
14273;BME280;7220;49.450;11.052;2023-01-29T23:08:26;98753.66;;;-2.49;97.55
14273;BME280;7220;49.450;11.052;2023-01-29T23:12:26;98754.44;;;-2.61;97.92
14273;BME280;7220;49.450;11.052;2023-01-29T23:16:27;98759.59;;;-2.64;98.30
14273;BME280;7220;49.450;11.052;2023-01-29T23:20:27;98769.13;;;-2.67;98.16
14273;BME280;7220;49.450;11.052;2023-01-29T23:24:27;98761.34;;;-2.64;98.34
14273;BME280;7220;49.450;11.052;2023-01-29T23:28:27;98753.56;;;-2.64;98.11
14273;BME280;7220;49.450;11.052;2023-01-29T23:32:28;98743.16;;;-2.61;98.40
14273;BME280;7220;49.450;11.052;2023-01-29T23:36:28;98742.25;;;-2.65;98.25
14273;BME280;7220;49.450;11.052;2023-01-29T23:40:28;98733.59;;;-2.65;98.36
14273;BME280;7220;49.450;11.052;2023-01-29T23:44:29;98724.03;;;-2.63;98.40
14273;BME280;7220;49.450;11.052;2023-01-29T23:48:29;98718.88;;;-2.60;98.34
14273;BME280;7220;49.450;11.052;2023-01-29T23:52:29;98707.59;;;-2.61;98.49
14273;BME280;7220;49.450;11.052;2023-01-29T23:56:30;98701.56;;;-2.57;98.38
